sensor_id;sensor_type;location;lat;lon;timestamp;temperature;humidity
66119;DHT22;52912;48.564;9.302;2023-03-14T00:02:17;10.09;90.37
66119;DHT22;52912;48.564;9.302;2023-03-14T00:04:42;10.12;90.75
66119;DHT22;52912;48.564;9.302;2023-03-14T00:07:10;10.10;90.06
66119;DHT22;52912;48.564;9.302;2023-03-14T00:09:36;10.10;90.12
66119;DHT22;52912;48.564;9.302;2023-03-14T00:12:01;10.02;90.44
66119;DHT22;52912;48.564;9.302;2023-03-14T00:14:27;10.01;90.65
66119;DHT22;52912;48.564;9.302;2023-03-14T00:16:54;10.01;90.91
66119;DHT22;52912;48.564;9.302;2023-03-14T00:19:19;10.12;90.32
66119;DHT22;52912;48.564;9.302;2023-03-14T00:21:45;10.13;89.70
66119;DHT22;52912;48.564;9.302;2023-03-14T00:24:10;9.94;90.53
66119;DHT22;52912;48.564;9.302;2023-03-14T00:26:36;9.98;90.29
66119;DHT22;52912;48.564;9.302;2023-03-14T00:29:01;10.08;89.15
66119;DHT22;52912;48.564;9.302;2023-03-14T00:31:27;10.05;87.80
66119;DHT22;52912;48.564;9.302;2023-03-14T00:33:54;9.99;88.30
66119;DHT22;52912;48.564;9.302;2023-03-14T00:36:20;9.85;88.16
66119;DHT22;52912;48.564;9.302;2023-03-14T00:38:48;9.91;88.36
66119;DHT22;52912;48.564;9.302;2023-03-14T00:41:16;9.94;88.40
66119;DHT22;52912;48.564;9.302;2023-03-14T00:43:42;9.97;87.22
66119;DHT22;52912;48.564;9.302;2023-03-14T00:46:08;9.94;87.82
66119;DHT22;52912;48.564;9.302;2023-03-14T00:48:34;9.85;87.90
66119;DHT22;52912;48.564;9.302;2023-03-14T00:51:01;9.92;87.20
66119;DHT22;52912;48.564;9.302;2023-03-14T00:53:26;9.92;87.05
66119;DHT22;52912;48.564;9.302;2023-03-14T00:55:52;9.89;87.87
66119;DHT22;52912;48.564;9.302;2023-03-14T00:58:18;9.89;88.31
66119;DHT22;52912;48.564;9.302;2023-03-14T01:00:44;9.88;88.69
66119;DHT22;52912;48.564;9.302;2023-03-14T01:03:10;9.87;88.30
66119;DHT22;52912;48.564;9.302;2023-03-14T01:05:36;9.89;87.33
66119;DHT22;52912;48.564;9.302;2023-03-14T01:08:06;9.87;88.05
66119;DHT22;52912;48.564;9.302;2023-03-14T01:10:32;9.78;88.29
66119;DHT22;52912;48.564;9.302;2023-03-14T01:12:58;9.80;87.87
66119;DHT22;52912;48.564;9.302;2023-03-14T01:15:23;9.74;88.32
66119;DHT22;52912;48.564;9.302;2023-03-14T01:17:49;9.74;88.09
66119;DHT22;52912;48.564;9.302;2023-03-14T01:20:15;9.75;88.68
66119;DHT22;52912;48.564;9.302;2023-03-14T01:22:41;9.73;88.58
66119;DHT22;52912;48.564;9.302;2023-03-14T01:25:10;9.77;88.85
66119;DHT22;52912;48.564;9.302;2023-03-14T01:27:36;9.67;88.81
66119;DHT22;52912;48.564;9.302;2023-03-14T01:30:02;9.61;89.21
66119;DHT22;52912;48.564;9.302;2023-03-14T01:32:27;9.63;89.10
66119;DHT22;52912;48.564;9.302;2023-03-14T01:34:53;9.70;89.19
66119;DHT22;52912;48.564;9.302;2023-03-14T01:37:18;9.71;89.01
66119;DHT22;52912;48.564;9.302;2023-03-14T01:39:46;9.70;89.37
66119;DHT22;52912;48.564;9.302;2023-03-14T01:42:13;9.69;89.85
66119;DHT22;52912;48.564;9.302;2023-03-14T01:44:52;9.67;89.93
66119;DHT22;52912;48.564;9.302;2023-03-14T01:47:18;9.67;89.45
66119;DHT22;52912;48.564;9.302;2023-03-14T01:49:45;9.61;89.91
66119;DHT22;52912;48.564;9.302;2023-03-14T01:52:14;9.58;89.71
66119;DHT22;52912;48.564;9.302;2023-03-14T01:54:43;9.57;90.12
66119;DHT22;52912;48.564;9.302;2023-03-14T01:57:13;9.63;89.81
66119;DHT22;52912;48.564;9.302;2023-03-14T01:59:40;9.60;90.21
66119;DHT22;52912;48.564;9.302;2023-03-14T02:02:09;9.53;90.94
66119;DHT22;52912;48.564;9.302;2023-03-14T02:04:35;9.53;90.50
66119;DHT22;52912;48.564;9.302;2023-03-14T02:07:06;9.51;90.90
66119;DHT22;52912;48.564;9.302;2023-03-14T02:09:34;9.43;90.99
66119;DHT22;52912;48.564;9.302;2023-03-14T02:11:59;9.40;91.63
66119;DHT22;52912;48.564;9.302;2023-03-14T02:14:30;9.44;92.73
66119;DHT22;52912;48.564;9.302;2023-03-14T02:16:56;9.40;91.27
66119;DHT22;52912;48.564;9.302;2023-03-14T02:19:28;9.43;91.29
66119;DHT22;52912;48.564;9.302;2023-03-14T02:22:02;9.44;91.17
66119;DHT22;52912;48.564;9.302;2023-03-14T02:24:34;9.46;91.30
66119;DHT22;52912;48.564;9.302;2023-03-14T02:27:06;9.39;91.56
66119;DHT22;52912;48.564;9.302;2023-03-14T02:29:33;9.35;92.05
66119;DHT22;52912;48.564;9.302;2023-03-14T02:32:00;9.29;92.00
66119;DHT22;52912;48.564;9.302;2023-03-14T02:34:26;9.32;92.26
66119;DHT22;52912;48.564;9.302;2023-03-14T02:36:52;9.37;92.06
66119;DHT22;52912;48.564;9.302;2023-03-14T02:39:22;9.39;93.13
66119;DHT22;52912;48.564;9.302;2023-03-14T02:41:49;9.29;94.06
66119;DHT22;52912;48.564;9.302;2023-03-14T02:44:16;9.23;93.01
66119;DHT22;52912;48.564;9.302;2023-03-14T02:46:42;9.27;92.05
66119;DHT22;52912;48.564;9.302;2023-03-14T02:49:10;9.37;90.47
66119;DHT22;52912;48.564;9.302;2023-03-14T02:51:37;9.44;90.65
66119;DHT22;52912;48.564;9.302;2023-03-14T02:54:03;9.55;89.57
66119;DHT22;52912;48.564;9.302;2023-03-14T02:56:29;9.58;89.35
66119;DHT22;52912;48.564;9.302;2023-03-14T02:58:54;9.74;87.05
66119;DHT22;52912;48.564;9.302;2023-03-14T03:01:21;9.85;86.54
66119;DHT22;52912;48.564;9.302;2023-03-14T03:03:46;9.91;86.39
66119;DHT22;52912;48.564;9.302;2023-03-14T03:06:12;9.95;86.27
66119;DHT22;52912;48.564;9.302;2023-03-14T03:08:37;9.92;85.69
66119;DHT22;52912;48.564;9.302;2023-03-14T03:11:04;9.94;86.11
66119;DHT22;52912;48.564;9.302;2023-03-14T03:13:30;9.88;86.25
66119;DHT22;52912;48.564;9.302;2023-03-14T03:15:55;9.97;85.31
66119;DHT22;52912;48.564;9.302;2023-03-14T03:18:22;9.98;85.23
66119;DHT22;52912;48.564;9.302;2023-03-14T03:20:48;9.89;86.10
66119;DHT22;52912;48.564;9.302;2023-03-14T03:23:13;9.91;85.73
66119;DHT22;52912;48.564;9.302;2023-03-14T03:25:38;9.84;85.65
66119;DHT22;52912;48.564;9.302;2023-03-14T03:28:04;9.91;85.13
66119;DHT22;52912;48.564;9.302;2023-03-14T03:30:29;9.87;84.76
66119;DHT22;52912;48.564;9.302;2023-03-14T03:32:55;9.85;84.77
66119;DHT22;52912;48.564;9.302;2023-03-14T03:35:22;9.81;84.53
66119;DHT22;52912;48.564;9.302;2023-03-14T03:37:47;9.87;84.03
66119;DHT22;52912;48.564;9.302;2023-03-14T03:40:13;9.81;83.89
66119;DHT22;52912;48.564;9.302;2023-03-14T03:42:38;9.82;84.06
66119;DHT22;52912;48.564;9.302;2023-03-14T03:45:04;9.82;83.93
66119;DHT22;52912;48.564;9.302;2023-03-14T03:47:31;9.84;83.41
66119;DHT22;52912;48.564;9.302;2023-03-14T03:49:56;9.81;83.45
66119;DHT22;52912;48.564;9.302;2023-03-14T03:52:23;9.78;83.38
66119;DHT22;52912;48.564;9.302;2023-03-14T03:54:48;9.80;83.21
66119;DHT22;52912;48.564;9.302;2023-03-14T03:57:14;9.80;83.06
66119;DHT22;52912;48.564;9.302;2023-03-14T03:59:39;9.77;82.53
66119;DHT22;52912;48.564;9.302;2023-03-14T04:02:05;9.69;83.06
66119;DHT22;52912;48.564;9.302;2023-03-14T04:04:30;9.67;83.02
66119;DHT22;52912;48.564;9.302;2023-03-14T04:06:56;9.63;83.30
66119;DHT22;52912;48.564;9.302;2023-03-14T04:09:22;9.67;82.86
66119;DHT22;52912;48.564;9.302;2023-03-14T04:11:48;9.60;83.05
66119;DHT22;52912;48.564;9.302;2023-03-14T04:14:13;9.60;82.97
66119;DHT22;52912;48.564;9.302;2023-03-14T04:16:39;9.57;83.35
66119;DHT22;52912;48.564;9.302;2023-03-14T04:19:04;9.60;82.93
66119;DHT22;52912;48.564;9.302;2023-03-14T04:21:30;9.54;83.29
66119;DHT22;52912;48.564;9.302;2023-03-14T04:23:55;9.58;82.60
66119;DHT22;52912;48.564;9.302;2023-03-14T04:26:22;9.60;82.14
66119;DHT22;52912;48.564;9.302;2023-03-14T04:28:47;9.61;81.41
66119;DHT22;52912;48.564;9.302;2023-03-14T04:31:15;9.53;82.53
66119;DHT22;52912;48.564;9.302;2023-03-14T04:33:40;9.58;82.36
66119;DHT22;52912;48.564;9.302;2023-03-14T04:36:07;9.65;81.06
66119;DHT22;52912;48.564;9.302;2023-03-14T04:38:33;9.64;81.12
66119;DHT22;52912;48.564;9.302;2023-03-14T04:40:59;9.64;80.69
66119;DHT22;52912;48.564;9.302;2023-03-14T04:43:26;9.73;79.66
66119;DHT22;52912;48.564;9.302;2023-03-14T04:45:52;9.65;79.56
66119;DHT22;52912;48.564;9.302;2023-03-14T04:48:18;9.81;78.29
66119;DHT22;52912;48.564;9.302;2023-03-14T04:50:43;9.80;78.28
66119;DHT22;52912;48.564;9.302;2023-03-14T04:53:09;9.80;78.21
66119;DHT22;52912;48.564;9.302;2023-03-14T04:55:34;9.81;78.18
66119;DHT22;52912;48.564;9.302;2023-03-14T04:58:00;9.91;77.07
66119;DHT22;52912;48.564;9.302;2023-03-14T05:00:26;9.89;77.17
66119;DHT22;52912;48.564;9.302;2023-03-14T05:02:52;9.87;76.85
66119;DHT22;52912;48.564;9.302;2023-03-14T05:05:17;9.84;77.53
66119;DHT22;52912;48.564;9.302;2023-03-14T05:07:43;9.88;76.95
66119;DHT22;52912;48.564;9.302;2023-03-14T05:10:09;9.85;77.17
66119;DHT22;52912;48.564;9.302;2023-03-14T05:12:35;9.81;77.48
66119;DHT22;52912;48.564;9.302;2023-03-14T05:15:00;9.81;77.20
66119;DHT22;52912;48.564;9.302;2023-03-14T05:17:27;9.88;77.22
66119;DHT22;52912;48.564;9.302;2023-03-14T05:19:53;9.84;77.17
66119;DHT22;52912;48.564;9.302;2023-03-14T05:22:18;9.85;76.90
66119;DHT22;52912;48.564;9.302;2023-03-14T05:24:44;9.81;77.16
66119;DHT22;52912;48.564;9.302;2023-03-14T05:27:09;9.82;77.55
66119;DHT22;52912;48.564;9.302;2023-03-14T05:29:35;9.81;77.04
66119;DHT22;52912;48.564;9.302;2023-03-14T05:32:00;9.78;77.54
66119;DHT22;52912;48.564;9.302;2023-03-14T05:34:27;9.85;77.39
66119;DHT22;52912;48.564;9.302;2023-03-14T05:36:52;9.87;77.09
66119;DHT22;52912;48.564;9.302;2023-03-14T05:39:18;9.81;77.40
66119;DHT22;52912;48.564;9.302;2023-03-14T05:41:43;9.81;77.41
66119;DHT22;52912;48.564;9.302;2023-03-14T05:44:09;9.78;77.48
66119;DHT22;52912;48.564;9.302;2023-03-14T05:46:34;9.80;77.22
66119;DHT22;52912;48.564;9.302;2023-03-14T05:49:00;9.85;76.71
66119;DHT22;52912;48.564;9.302;2023-03-14T05:51:27;9.84;77.39
66119;DHT22;52912;48.564;9.302;2023-03-14T05:53:52;9.91;76.81
66119;DHT22;52912;48.564;9.302;2023-03-14T05:56:18;9.85;76.91
66119;DHT22;52912;48.564;9.302;2023-03-14T05:58:43;9.92;76.60
66119;DHT22;52912;48.564;9.302;2023-03-14T06:01:09;9.91;76.08
66119;DHT22;52912;48.564;9.302;2023-03-14T06:03:34;9.94;76.20
66119;DHT22;52912;48.564;9.302;2023-03-14T06:06:00;9.95;76.35
66119;DHT22;52912;48.564;9.302;2023-03-14T06:08:27;9.95;76.37
66119;DHT22;52912;48.564;9.302;2023-03-14T06:10:53;9.99;75.90
66119;DHT22;52912;48.564;9.302;2023-03-14T06:13:18;9.91;76.54
66119;DHT22;52912;48.564;9.302;2023-03-14T06:15:44;9.87;77.24
66119;DHT22;52912;48.564;9.302;2023-03-14T06:18:09;9.88;76.22
66119;DHT22;52912;48.564;9.302;2023-03-14T06:20:35;9.84;76.82
66119;DHT22;52912;48.564;9.302;2023-03-14T06:23:01;9.89;76.39
66119;DHT22;52912;48.564;9.302;2023-03-14T06:25:27;9.94;76.64
66119;DHT22;52912;48.564;9.302;2023-03-14T06:27:53;9.85;77.13
66119;DHT22;52912;48.564;9.302;2023-03-14T06:30:18;9.84;77.27
66119;DHT22;52912;48.564;9.302;2023-03-14T06:32:44;9.92;76.62
66119;DHT22;52912;48.564;9.302;2023-03-14T06:35:09;9.88;77.31
66119;DHT22;52912;48.564;9.302;2023-03-14T06:37:35;9.88;77.09
66119;DHT22;52912;48.564;9.302;2023-03-14T06:40:00;9.92;77.02
66119;DHT22;52912;48.564;9.302;2023-03-14T06:42:27;9.88;77.25
66119;DHT22;52912;48.564;9.302;2023-03-14T06:44:52;9.91;77.07
66119;DHT22;52912;48.564;9.302;2023-03-14T06:47:18;9.95;76.99
66119;DHT22;52912;48.564;9.302;2023-03-14T06:49:43;9.95;77.17
66119;DHT22;52912;48.564;9.302;2023-03-14T06:52:09;9.97;77.29
66119;DHT22;52912;48.564;9.302;2023-03-14T06:54:34;10.03;76.86
66119;DHT22;52912;48.564;9.302;2023-03-14T06:57:00;10.03;76.90
66119;DHT22;52912;48.564;9.302;2023-03-14T06:59:26;10.06;76.53
66119;DHT22;52912;48.564;9.302;2023-03-14T07:01:52;10.19;75.67
66119;DHT22;52912;48.564;9.302;2023-03-14T07:04:17;10.25;75.84
66119;DHT22;52912;48.564;9.302;2023-03-14T07:06:43;10.32;75.86
66119;DHT22;52912;48.564;9.302;2023-03-14T07:09:08;10.28;76.33
66119;DHT22;52912;48.564;9.302;2023-03-14T07:11:34;10.23;76.06
66119;DHT22;52912;48.564;9.302;2023-03-14T07:13:59;10.35;75.51
66119;DHT22;52912;48.564;9.302;2023-03-14T07:16:26;10.42;75.59
66119;DHT22;52912;48.564;9.302;2023-03-14T07:18:51;10.42;75.80
66119;DHT22;52912;48.564;9.302;2023-03-14T07:21:17;10.49;75.40
66119;DHT22;52912;48.564;9.302;2023-03-14T07:23:42;10.50;75.25
66119;DHT22;52912;48.564;9.302;2023-03-14T07:26:08;10.56;75.41
66119;DHT22;52912;48.564;9.302;2023-03-14T07:28:33;10.54;75.41
66119;DHT22;52912;48.564;9.302;2023-03-14T07:30:58;10.61;75.48
66119;DHT22;52912;48.564;9.302;2023-03-14T07:33:25;10.80;75.30
66119;DHT22;52912;48.564;9.302;2023-03-14T07:35:51;11.12;74.10
66119;DHT22;52912;48.564;9.302;2023-03-14T07:38:17;11.14;73.32
66119;DHT22;52912;48.564;9.302;2023-03-14T07:40:42;11.47;73.09
66119;DHT22;52912;48.564;9.302;2023-03-14T07:43:08;11.78;72.12
66119;DHT22;52912;48.564;9.302;2023-03-14T07:45:33;11.75;71.66
66119;DHT22;52912;48.564;9.302;2023-03-14T07:47:58;11.82;72.19
66119;DHT22;52912;48.564;9.302;2023-03-14T07:50:26;11.79;72.38
66119;DHT22;52912;48.564;9.302;2023-03-14T07:52:51;11.67;72.57
66119;DHT22;52912;48.564;9.302;2023-03-14T07:55:17;11.57;72.42
66119;DHT22;52912;48.564;9.302;2023-03-14T07:57:43;11.61;72.02
66119;DHT22;52912;48.564;9.302;2023-03-14T08:00:09;11.46;72.14
66119;DHT22;52912;48.564;9.302;2023-03-14T08:02:34;11.37;72.57
66119;DHT22;52912;48.564;9.302;2023-03-14T08:05:00;11.40;72.89
66119;DHT22;52912;48.564;9.302;2023-03-14T08:07:27;11.46;72.58
66119;DHT22;52912;48.564;9.302;2023-03-14T08:09:52;11.42;72.27
66119;DHT22;52912;48.564;9.302;2023-03-14T08:12:18;11.53;73.04
66119;DHT22;52912;48.564;9.302;2023-03-14T08:14:43;11.57;72.68
66119;DHT22;52912;48.564;9.302;2023-03-14T08:17:08;11.66;72.17
66119;DHT22;52912;48.564;9.302;2023-03-14T08:19:34;11.75;72.25
66119;DHT22;52912;48.564;9.302;2023-03-14T08:21:59;11.73;71.81
66119;DHT22;52912;48.564;9.302;2023-03-14T08:24:26;11.59;71.44
66119;DHT22;52912;48.564;9.302;2023-03-14T08:26:52;11.50;71.81
66119;DHT22;52912;48.564;9.302;2023-03-14T08:29:17;11.46;71.89
66119;DHT22;52912;48.564;9.302;2023-03-14T08:31:43;11.49;71.81
66119;DHT22;52912;48.564;9.302;2023-03-14T08:34:08;11.51;72.16
66119;DHT22;52912;48.564;9.302;2023-03-14T08:36:34;11.53;71.65
66119;DHT22;52912;48.564;9.302;2023-03-14T08:38:59;11.60;71.46
66119;DHT22;52912;48.564;9.302;2023-03-14T08:41:26;11.70;71.85
66119;DHT22;52912;48.564;9.302;2023-03-14T08:43:51;11.78;71.82
66119;DHT22;52912;48.564;9.302;2023-03-14T08:46:17;11.99;71.14
66119;DHT22;52912;48.564;9.302;2023-03-14T08:48:42;12.04;71.08
66119;DHT22;52912;48.564;9.302;2023-03-14T08:51:09;12.05;70.58
66119;DHT22;52912;48.564;9.302;2023-03-14T08:53:34;12.30;70.26
66119;DHT22;52912;48.564;9.302;2023-03-14T08:56:00;12.40;69.88
66119;DHT22;52912;48.564;9.302;2023-03-14T08:58:27;12.84;68.47
66119;DHT22;52912;48.564;9.302;2023-03-14T09:00:52;13.53;67.79
66119;DHT22;52912;48.564;9.302;2023-03-14T09:03:18;13.71;67.29
66119;DHT22;52912;48.564;9.302;2023-03-14T09:05:43;13.79;66.17
66119;DHT22;52912;48.564;9.302;2023-03-14T09:08:09;13.73;66.98
66119;DHT22;52912;48.564;9.302;2023-03-14T09:10:34;13.37;67.76
66119;DHT22;52912;48.564;9.302;2023-03-14T09:13:00;13.58;68.52
66119;DHT22;52912;48.564;9.302;2023-03-14T09:15:26;13.61;66.85
66119;DHT22;52912;48.564;9.302;2023-03-14T09:17:52;13.47;67.48
66119;DHT22;52912;48.564;9.302;2023-03-14T09:20:17;13.68;68.37
66119;DHT22;52912;48.564;9.302;2023-03-14T09:22:43;13.51;68.19
66119;DHT22;52912;48.564;9.302;2023-03-14T09:25:09;13.36;69.46
66119;DHT22;52912;48.564;9.302;2023-03-14T09:27:34;12.94;70.43
66119;DHT22;52912;48.564;9.302;2023-03-14T09:30:00;12.44;73.43
66119;DHT22;52912;48.564;9.302;2023-03-14T09:32:27;12.30;75.91
66119;DHT22;52912;48.564;9.302;2023-03-14T09:34:52;12.04;76.29
66119;DHT22;52912;48.564;9.302;2023-03-14T09:37:18;12.12;76.19
66119;DHT22;52912;48.564;9.302;2023-03-14T09:39:43;12.28;75.54
66119;DHT22;52912;48.564;9.302;2023-03-14T09:42:25;12.40;75.84
66119;DHT22;52912;48.564;9.302;2023-03-14T09:44:55;12.30;75.89
66119;DHT22;52912;48.564;9.302;2023-03-14T09:47:22;12.36;76.97
66119;DHT22;52912;48.564;9.302;2023-03-14T09:49:49;12.36;77.41
66119;DHT22;52912;48.564;9.302;2023-03-14T09:52:17;12.18;77.90
66119;DHT22;52912;48.564;9.302;2023-03-14T09:54:47;12.23;77.54
66119;DHT22;52912;48.564;9.302;2023-03-14T09:57:15;12.04;77.59
66119;DHT22;52912;48.564;9.302;2023-03-14T09:59:43;11.78;77.98
66119;DHT22;52912;48.564;9.302;2023-03-14T10:02:16;11.63;76.12
66119;DHT22;52912;48.564;9.302;2023-03-14T10:04:43;11.59;76.93
66119;DHT22;52912;48.564;9.302;2023-03-14T10:07:13;11.61;76.98
66119;DHT22;52912;48.564;9.302;2023-03-14T10:09:39;11.33;76.72
66119;DHT22;52912;48.564;9.302;2023-03-14T10:12:07;11.33;76.84
66119;DHT22;52912;48.564;9.302;2023-03-14T10:14:35;11.37;77.26
66119;DHT22;52912;48.564;9.302;2023-03-14T10:17:09;11.42;77.15
66119;DHT22;52912;48.564;9.302;2023-03-14T10:19:35;11.50;77.00
66119;DHT22;52912;48.564;9.302;2023-03-14T10:22:01;11.50;77.14
66119;DHT22;52912;48.564;9.302;2023-03-14T10:24:29;11.43;76.89
66119;DHT22;52912;48.564;9.302;2023-03-14T10:26:59;11.50;77.13
66119;DHT22;52912;48.564;9.302;2023-03-14T10:29:24;11.63;76.46
66119;DHT22;52912;48.564;9.302;2023-03-14T10:31:52;11.79;77.07
66119;DHT22;52912;48.564;9.302;2023-03-14T10:34:22;11.74;75.99
66119;DHT22;52912;48.564;9.302;2023-03-14T10:36:52;11.77;75.87
66119;DHT22;52912;48.564;9.302;2023-03-14T10:39:32;11.84;75.54
66119;DHT22;52912;48.564;9.302;2023-03-14T10:42:05;11.87;75.17
66119;DHT22;52912;48.564;9.302;2023-03-14T10:44:32;11.91;74.38
66119;DHT22;52912;48.564;9.302;2023-03-14T10:47:00;11.99;74.28
66119;DHT22;52912;48.564;9.302;2023-03-14T10:49:28;11.96;74.76
66119;DHT22;52912;48.564;9.302;2023-03-14T10:51:54;11.95;74.59
66119;DHT22;52912;48.564;9.302;2023-03-14T10:54:21;12.04;73.97
66119;DHT22;52912;48.564;9.302;2023-03-14T10:56:57;11.85;73.83
66119;DHT22;52912;48.564;9.302;2023-03-14T10:59:23;11.95;74.14
66119;DHT22;52912;48.564;9.302;2023-03-14T11:01:54;11.88;74.64
66119;DHT22;52912;48.564;9.302;2023-03-14T11:04:44;11.99;75.11
66119;DHT22;52912;48.564;9.302;2023-03-14T11:07:21;11.89;75.01
66119;DHT22;52912;48.564;9.302;2023-03-14T11:09:55;11.81;76.78
66119;DHT22;52912;48.564;9.302;2023-03-14T11:12:34;11.75;78.37
66119;DHT22;52912;48.564;9.302;2023-03-14T11:15:04;11.54;79.05
66119;DHT22;52912;48.564;9.302;2023-03-14T11:17:36;11.54;80.04
66119;DHT22;52912;48.564;9.302;2023-03-14T11:20:24;11.36;81.06
66119;DHT22;52912;48.564;9.302;2023-03-14T11:22:58;11.47;81.96
66119;DHT22;52912;48.564;9.302;2023-03-14T11:25:26;11.29;82.33
66119;DHT22;52912;48.564;9.302;2023-03-14T11:28:09;11.05;84.30
66119;DHT22;52912;48.564;9.302;2023-03-14T11:30:38;10.87;84.03
66119;DHT22;52912;48.564;9.302;2023-03-14T11:33:12;10.81;84.05
66119;DHT22;52912;48.564;9.302;2023-03-14T11:35:44;10.71;84.28
66119;DHT22;52912;48.564;9.302;2023-03-14T11:38:15;10.59;84.86
66119;DHT22;52912;48.564;9.302;2023-03-14T11:40:42;10.52;84.23
66119;DHT22;52912;48.564;9.302;2023-03-14T11:43:13;10.53;85.41
66119;DHT22;52912;48.564;9.302;2023-03-14T11:45:42;10.28;85.94
66119;DHT22;52912;48.564;9.302;2023-03-14T11:48:29;10.29;86.09
66119;DHT22;52912;48.564;9.302;2023-03-14T11:51:01;10.15;87.06
66119;DHT22;52912;48.564;9.302;2023-03-14T11:53:40;10.05;86.08
66119;DHT22;52912;48.564;9.302;2023-03-14T11:56:11;10.06;86.48
66119;DHT22;52912;48.564;9.302;2023-03-14T11:58:50;10.15;86.07
66119;DHT22;52912;48.564;9.302;2023-03-14T12:01:17;10.17;86.67
66119;DHT22;52912;48.564;9.302;2023-03-14T12:03:49;10.32;86.09
66119;DHT22;52912;48.564;9.302;2023-03-14T12:06:22;10.20;85.93
66119;DHT22;52912;48.564;9.302;2023-03-14T12:08:50;10.36;86.13
66119;DHT22;52912;48.564;9.302;2023-03-14T12:11:20;10.30;84.98
66119;DHT22;52912;48.564;9.302;2023-03-14T12:13:50;10.35;85.29
66119;DHT22;52912;48.564;9.302;2023-03-14T12:16:31;10.23;85.65
66119;DHT22;52912;48.564;9.302;2023-03-14T12:22:06;10.22;85.47
66119;DHT22;52912;48.564;9.302;2023-03-14T12:24:34;10.22;86.86
66119;DHT22;52912;48.564;9.302;2023-03-14T12:27:02;10.12;86.62
66119;DHT22;52912;48.564;9.302;2023-03-14T12:29:29;10.12;87.54
66119;DHT22;52912;48.564;9.302;2023-03-14T12:34:39;10.12;87.73
66119;DHT22;52912;48.564;9.302;2023-03-14T12:37:12;10.10;85.45
66119;DHT22;52912;48.564;9.302;2023-03-14T12:39:45;10.02;84.33
66119;DHT22;52912;48.564;9.302;2023-03-14T12:42:14;10.10;82.13
66119;DHT22;52912;48.564;9.302;2023-03-14T12:44:48;10.13;80.72
66119;DHT22;52912;48.564;9.302;2023-03-14T12:47:43;10.02;79.70
66119;DHT22;52912;48.564;9.302;2023-03-14T12:50:25;10.12;79.54
66119;DHT22;52912;48.564;9.302;2023-03-14T12:53:06;10.32;79.75
66119;DHT22;52912;48.564;9.302;2023-03-14T12:55:39;10.36;77.30
66119;DHT22;52912;48.564;9.302;2023-03-14T12:58:12;10.46;76.80
66119;DHT22;52912;48.564;9.302;2023-03-14T13:00:42;10.60;76.08
66119;DHT22;52912;48.564;9.302;2023-03-14T13:03:19;10.99;75.42
66119;DHT22;52912;48.564;9.302;2023-03-14T13:05:52;11.99;70.80
66119;DHT22;52912;48.564;9.302;2023-03-14T13:08:33;12.34;67.00
66119;DHT22;52912;48.564;9.302;2023-03-14T13:11:01;12.47;64.17
66119;DHT22;52912;48.564;9.302;2023-03-14T13:13:27;12.01;64.07
66119;DHT22;52912;48.564;9.302;2023-03-14T13:15:56;11.99;64.44
66119;DHT22;52912;48.564;9.302;2023-03-14T13:18:27;11.82;64.61
66119;DHT22;52912;48.564;9.302;2023-03-14T13:20:56;11.09;65.61
66119;DHT22;52912;48.564;9.302;2023-03-14T13:23:25;10.52;65.23
66119;DHT22;52912;48.564;9.302;2023-03-14T13:25:51;10.63;63.87
66119;DHT22;52912;48.564;9.302;2023-03-14T13:28:17;10.70;65.28
66119;DHT22;52912;48.564;9.302;2023-03-14T13:30:45;11.68;63.25
66119;DHT22;52912;48.564;9.302;2023-03-14T13:33:14;11.19;64.38
66119;DHT22;52912;48.564;9.302;2023-03-14T13:35:42;11.15;66.07
66119;DHT22;52912;48.564;9.302;2023-03-14T13:38:15;11.11;65.87
66119;DHT22;52912;48.564;9.302;2023-03-14T13:40:43;11.49;64.10
66119;DHT22;52912;48.564;9.302;2023-03-14T13:43:15;11.09;62.02
66119;DHT22;52912;48.564;9.302;2023-03-14T13:45:44;10.59;62.84
66119;DHT22;52912;48.564;9.302;2023-03-14T13:48:10;10.20;63.32
66119;DHT22;52912;48.564;9.302;2023-03-14T13:50:37;9.95;64.83
66119;DHT22;52912;48.564;9.302;2023-03-14T13:53:03;9.89;65.03
66119;DHT22;52912;48.564;9.302;2023-03-14T13:55:29;9.95;64.69
66119;DHT22;52912;48.564;9.302;2023-03-14T13:57:57;9.97;66.18
66119;DHT22;52912;48.564;9.302;2023-03-14T14:00:24;9.78;65.15
66119;DHT22;52912;48.564;9.302;2023-03-14T14:02:50;9.53;64.72
66119;DHT22;52912;48.564;9.302;2023-03-14T14:05:15;9.44;64.58
66119;DHT22;52912;48.564;9.302;2023-03-14T14:07:44;9.35;65.89
66119;DHT22;52912;48.564;9.302;2023-03-14T14:10:11;9.36;66.33
66119;DHT22;52912;48.564;9.302;2023-03-14T14:12:39;9.54;66.53
66119;DHT22;52912;48.564;9.302;2023-03-14T14:15:10;9.44;62.23
66119;DHT22;52912;48.564;9.302;2023-03-14T14:17:38;9.48;63.77
66119;DHT22;52912;48.564;9.302;2023-03-14T14:20:08;9.44;62.98
66119;DHT22;52912;48.564;9.302;2023-03-14T14:22:38;9.39;62.90
66119;DHT22;52912;48.564;9.302;2023-03-14T14:25:05;9.37;63.09
66119;DHT22;52912;48.564;9.302;2023-03-14T14:27:35;9.51;63.76
66119;DHT22;52912;48.564;9.302;2023-03-14T14:30:04;9.47;63.07
66119;DHT22;52912;48.564;9.302;2023-03-14T14:32:35;9.53;62.76
66119;DHT22;52912;48.564;9.302;2023-03-14T14:35:01;9.53;63.32
66119;DHT22;52912;48.564;9.302;2023-03-14T14:37:28;9.74;63.28
66119;DHT22;52912;48.564;9.302;2023-03-14T14:39:56;9.57;62.46
66119;DHT22;52912;48.564;9.302;2023-03-14T14:42:26;9.61;62.91
66119;DHT22;52912;48.564;9.302;2023-03-14T14:44:52;9.48;62.13
66119;DHT22;52912;48.564;9.302;2023-03-14T14:47:21;9.39;60.78
66119;DHT22;52912;48.564;9.302;2023-03-14T14:49:48;9.22;61.37
66119;DHT22;52912;48.564;9.302;2023-03-14T14:52:16;9.12;61.07
66119;DHT22;52912;48.564;9.302;2023-03-14T14:54:46;9.15;60.17
66119;DHT22;52912;48.564;9.302;2023-03-14T14:57:19;9.05;60.00
66119;DHT22;52912;48.564;9.302;2023-03-14T14:59:48;9.09;61.26
66119;DHT22;52912;48.564;9.302;2023-03-14T15:02:28;9.19;60.68
66119;DHT22;52912;48.564;9.302;2023-03-14T15:04:54;9.18;61.57
66119;DHT22;52912;48.564;9.302;2023-03-14T15:07:20;9.19;61.03
66119;DHT22;52912;48.564;9.302;2023-03-14T15:09:45;9.26;59.93
66119;DHT22;52912;48.564;9.302;2023-03-14T15:12:11;9.37;60.82
66119;DHT22;52912;48.564;9.302;2023-03-14T15:14:36;9.12;59.10
66119;DHT22;52912;48.564;9.302;2023-03-14T15:17:03;9.11;58.86
66119;DHT22;52912;48.564;9.302;2023-03-14T15:19:29;9.14;59.38
66119;DHT22;52912;48.564;9.302;2023-03-14T15:21:54;9.15;59.88
66119;DHT22;52912;48.564;9.302;2023-03-14T15:24:20;9.01;60.49
66119;DHT22;52912;48.564;9.302;2023-03-14T15:26:46;9.07;61.67
66119;DHT22;52912;48.564;9.302;2023-03-14T15:29:11;9.07;61.08
66119;DHT22;52912;48.564;9.302;2023-03-14T15:31:37;9.89;59.52
66119;DHT22;52912;48.564;9.302;2023-03-14T15:34:04;9.80;58.89
66119;DHT22;52912;48.564;9.302;2023-03-14T15:36:31;9.67;59.80
66119;DHT22;52912;48.564;9.302;2023-03-14T15:38:58;9.53;59.94
66119;DHT22;52912;48.564;9.302;2023-03-14T15:41:24;9.26;59.74
66119;DHT22;52912;48.564;9.302;2023-03-14T15:43:49;9.48;60.07
66119;DHT22;52912;48.564;9.302;2023-03-14T15:46:15;10.03;60.08
66119;DHT22;52912;48.564;9.302;2023-03-14T15:48:40;10.05;59.87